sensor_id;sensor_type;location;lat;lon;timestamp;pressure;altitude;pressure_sealevel;temperature;humidity
77855;BME280;67046;50.088;14.336;2023-03-01T00:00:14;98642.65;;;0.55;55.57
77855;BME280;67046;50.088;14.336;2023-03-01T00:01:10;98640.52;;;0.54;55.95
77855;BME280;67046;50.088;14.336;2023-03-01T00:01:42;98641.59;;;0.51;55.95
77855;BME280;67046;50.088;14.336;2023-03-01T00:02:14;98643.03;;;0.51;56.03
77855;BME280;67046;50.088;14.336;2023-03-01T00:02:46;98642.36;;;0.51;55.99
77855;BME280;67046;50.088;14.336;2023-03-01T00:03:17;98642.64;;;0.50;56.05
77855;BME280;67046;50.088;14.336;2023-03-01T00:03:50;98642.00;;;0.49;56.01
77855;BME280;67046;50.088;14.336;2023-03-01T00:04:22;98641.34;;;0.49;55.95
77855;BME280;67046;50.088;14.336;2023-03-01T00:04:54;98644.19;;;0.48;55.82
77855;BME280;67046;50.088;14.336;2023-03-01T00:05:26;98639.13;;;0.48;55.75
77855;BME280;67046;50.088;14.336;2023-03-01T00:05:58;98637.77;;;0.48;56.05
77855;BME280;67046;50.088;14.336;2023-03-01T00:06:31;98641.10;;;0.48;55.85
77855;BME280;67046;50.088;14.336;2023-03-01T00:07:03;98640.35;;;0.47;55.73
77855;BME280;67046;50.088;14.336;2023-03-01T00:07:35;98641.59;;;0.46;56.09
77855;BME280;67046;50.088;14.336;2023-03-01T00:08:06;98639.56;;;0.46;56.11
77855;BME280;67046;50.088;14.336;2023-03-01T00:08:39;98642.67;;;0.46;56.30
77855;BME280;67046;50.088;14.336;2023-03-01T00:09:11;98640.63;;;0.45;56.05
77855;BME280;67046;50.088;14.336;2023-03-01T00:09:43;98642.20;;;0.45;56.01
77855;BME280;67046;50.088;14.336;2023-03-01T00:10:17;98639.82;;;0.43;56.11
77855;BME280;67046;50.088;14.336;2023-03-01T00:11:36;98643.62;;;0.40;56.34
77855;BME280;67046;50.088;14.336;2023-03-01T00:12:08;98643.11;;;0.38;56.39
77855;BME280;67046;50.088;14.336;2023-03-01T00:12:40;98641.70;;;0.36;56.06
77855;BME280;67046;50.088;14.336;2023-03-01T00:13:13;98645.71;;;0.32;56.45
77855;BME280;67046;50.088;14.336;2023-03-01T00:13:46;98642.32;;;0.30;56.43
77855;BME280;67046;50.088;14.336;2023-03-01T00:14:19;98642.84;;;0.30;56.35
77855;BME280;67046;50.088;14.336;2023-03-01T00:14:51;98645.79;;;0.30;56.54
77855;BME280;67046;50.088;14.336;2023-03-01T00:15:23;98645.24;;;0.27;56.57
77855;BME280;67046;50.088;14.336;2023-03-01T00:15:55;98647.30;;;0.25;56.40
77855;BME280;67046;50.088;14.336;2023-03-01T00:16:31;98644.40;;;0.24;56.37
77855;BME280;67046;50.088;14.336;2023-03-01T00:17:05;98646.52;;;0.24;56.37
77855;BME280;67046;50.088;14.336;2023-03-01T00:17:37;98645.88;;;0.23;56.61
77855;BME280;67046;50.088;14.336;2023-03-01T00:18:09;98644.32;;;0.23;56.59
77855;BME280;67046;50.088;14.336;2023-03-01T00:18:41;98645.28;;;0.23;56.65
77855;BME280;67046;50.088;14.336;2023-03-01T00:19:18;98645.90;;;0.22;56.69
77855;BME280;67046;50.088;14.336;2023-03-01T00:19:51;98644.77;;;0.21;56.43
77855;BME280;67046;50.088;14.336;2023-03-01T00:20:23;98644.17;;;0.20;56.54
77855;BME280;67046;50.088;14.336;2023-03-01T00:20:55;98641.80;;;0.19;56.47
77855;BME280;67046;50.088;14.336;2023-03-01T00:21:28;98644.89;;;0.20;56.74
77855;BME280;67046;50.088;14.336;2023-03-01T00:22:00;98645.61;;;0.19;56.67
77855;BME280;67046;50.088;14.336;2023-03-01T00:22:32;98644.15;;;0.18;56.56
77855;BME280;67046;50.088;14.336;2023-03-01T00:23:04;98645.79;;;0.18;56.72
77855;BME280;67046;50.088;14.336;2023-03-01T00:23:36;98642.66;;;0.18;56.39
77855;BME280;67046;50.088;14.336;2023-03-01T00:24:09;98644.33;;;0.18;56.71
77855;BME280;67046;50.088;14.336;2023-03-01T00:24:42;98642.98;;;0.18;56.54
77855;BME280;67046;50.088;14.336;2023-03-01T00:25:13;98643.90;;;0.17;56.92
77855;BME280;67046;50.088;14.336;2023-03-01T00:25:45;98643.28;;;0.17;56.69
77855;BME280;67046;50.088;14.336;2023-03-01T00:26:19;98644.96;;;0.17;56.85
77855;BME280;67046;50.088;14.336;2023-03-01T00:26:55;98644.41;;;0.17;56.79
77855;BME280;67046;50.088;14.336;2023-03-01T00:27:27;98641.35;;;0.17;56.69
77855;BME280;67046;50.088;14.336;2023-03-01T00:27:59;98644.65;;;0.17;56.81
77855;BME280;67046;50.088;14.336;2023-03-01T00:28:31;98643.16;;;0.16;56.77
77855;BME280;67046;50.088;14.336;2023-03-01T00:29:03;98635.36;;;0.16;57.04
77855;BME280;67046;50.088;14.336;2023-03-01T00:29:35;98640.84;;;0.17;57.14
77855;BME280;67046;50.088;14.336;2023-03-01T00:30:08;98636.29;;;0.17;57.36
77855;BME280;67046;50.088;14.336;2023-03-01T00:30:40;98637.42;;;0.18;57.05
77855;BME280;67046;50.088;14.336;2023-03-01T00:31:17;98637.73;;;0.18;57.21
77855;BME280;67046;50.088;14.336;2023-03-01T00:31:49;98635.23;;;0.19;57.19
77855;BME280;67046;50.088;14.336;2023-03-01T00:32:21;98633.20;;;0.18;57.31
77855;BME280;67046;50.088;14.336;2023-03-01T00:32:53;98635.63;;;0.17;57.43
77855;BME280;67046;50.088;14.336;2023-03-01T00:33:25;98636.98;;;0.15;57.29
77855;BME280;67046;50.088;14.336;2023-03-01T00:34:00;98631.48;;;0.15;57.41
77855;BME280;67046;50.088;14.336;2023-03-01T00:34:33;98630.05;;;0.15;57.10
77855;BME280;67046;50.088;14.336;2023-03-01T00:35:05;98631.23;;;0.15;57.27
77855;BME280;67046;50.088;14.336;2023-03-01T00:35:37;98631.34;;;0.16;57.36
77855;BME280;67046;50.088;14.336;2023-03-01T00:36:10;98629.56;;;0.15;57.10
77855;BME280;67046;50.088;14.336;2023-03-01T00:36:42;98629.42;;;0.14;57.40
77855;BME280;67046;50.088;14.336;2023-03-01T00:37:14;98627.29;;;0.15;57.40
77855;BME280;67046;50.088;14.336;2023-03-01T00:37:46;98628.49;;;0.15;57.49
77855;BME280;67046;50.088;14.336;2023-03-01T00:38:18;98630.80;;;0.17;57.38
77855;BME280;67046;50.088;14.336;2023-03-01T00:38:50;98627.61;;;0.17;57.35
77855;BME280;67046;50.088;14.336;2023-03-01T00:39:22;98628.54;;;0.18;57.20
77855;BME280;67046;50.088;14.336;2023-03-01T00:39:54;98627.52;;;0.20;57.24
77855;BME280;67046;50.088;14.336;2023-03-01T00:40:27;98625.27;;;0.20;57.13
77855;BME280;67046;50.088;14.336;2023-03-01T00:41:15;98627.23;;;0.21;57.13
77855;BME280;67046;50.088;14.336;2023-03-01T00:41:47;98623.07;;;0.21;57.46
77855;BME280;67046;50.088;14.336;2023-03-01T00:42:19;98623.17;;;0.20;57.34
77855;BME280;67046;50.088;14.336;2023-03-01T00:42:51;98621.98;;;0.20;57.37
77855;BME280;67046;50.088;14.336;2023-03-01T00:43:23;98619.93;;;0.19;57.33
77855;BME280;67046;50.088;14.336;2023-03-01T00:43:55;98618.64;;;0.20;57.23
77855;BME280;67046;50.088;14.336;2023-03-01T00:44:27;98616.73;;;0.20;57.34
77855;BME280;67046;50.088;14.336;2023-03-01T00:45:00;98618.44;;;0.20;57.31
77855;BME280;67046;50.088;14.336;2023-03-01T00:45:32;98618.63;;;0.20;57.21
77855;BME280;67046;50.088;14.336;2023-03-01T00:46:07;98614.86;;;0.20;57.18
77855;BME280;67046;50.088;14.336;2023-03-01T00:46:39;98617.27;;;0.20;57.12
77855;BME280;67046;50.088;14.336;2023-03-01T00:47:11;98617.16;;;0.19;57.34
77855;BME280;67046;50.088;14.336;2023-03-01T00:47:43;98617.10;;;0.20;57.35
77855;BME280;67046;50.088;14.336;2023-03-01T00:48:15;98618.85;;;0.20;57.21
77855;BME280;67046;50.088;14.336;2023-03-01T00:48:48;98616.16;;;0.19;57.27
77855;BME280;67046;50.088;14.336;2023-03-01T00:49:20;98614.37;;;0.20;57.22
77855;BME280;67046;50.088;14.336;2023-03-01T00:49:52;98619.90;;;0.20;57.40
77855;BME280;67046;50.088;14.336;2023-03-01T00:50:24;98618.43;;;0.19;57.06
77855;BME280;67046;50.088;14.336;2023-03-01T00:50:56;98618.03;;;0.18;57.44
77855;BME280;67046;50.088;14.336;2023-03-01T00:51:29;98618.96;;;0.17;57.36
77855;BME280;67046;50.088;14.336;2023-03-01T00:52:01;98617.30;;;0.16;57.67
77855;BME280;67046;50.088;14.336;2023-03-01T00:52:33;98614.62;;;0.15;57.49
77855;BME280;67046;50.088;14.336;2023-03-01T00:53:05;98617.83;;;0.14;57.36
77855;BME280;67046;50.088;14.336;2023-03-01T00:53:38;98616.77;;;0.13;57.50
77855;BME280;67046;50.088;14.336;2023-03-01T00:54:10;98618.39;;;0.12;57.60
77855;BME280;67046;50.088;14.336;2023-03-01T00:54:42;98615.42;;;0.10;57.64
77855;BME280;67046;50.088;14.336;2023-03-01T00:55:14;98614.98;;;0.10;57.68
77855;BME280;67046;50.088;14.336;2023-03-01T00:55:46;98617.05;;;0.08;57.67
77855;BME280;67046;50.088;14.336;2023-03-01T00:56:18;98612.98;;;0.07;57.73
77855;BME280;67046;50.088;14.336;2023-03-01T00:56:50;98617.05;;;0.06;57.67
77855;BME280;67046;50.088;14.336;2023-03-01T00:57:22;98614.80;;;0.06;57.68
77855;BME280;67046;50.088;14.336;2023-03-01T00:57:54;98617.48;;;0.06;57.39
77855;BME280;67046;50.088;14.336;2023-03-01T00:58:26;98613.26;;;0.06;57.22
77855;BME280;67046;50.088;14.336;2023-03-01T00:58:58;98613.02;;;0.05;57.55
77855;BME280;67046;50.088;14.336;2023-03-01T00:59:30;98617.48;;;0.01;57.72
77855;BME280;67046;50.088;14.336;2023-03-01T01:00:04;98616.14;;;-0.01;57.83
77855;BME280;67046;50.088;14.336;2023-03-01T01:00:36;98618.46;;;-0.02;57.76
77855;BME280;67046;50.088;14.336;2023-03-01T01:01:17;98616.57;;;-0.02;57.74
77855;BME280;67046;50.088;14.336;2023-03-01T01:01:49;98617.75;;;-0.02;58.09
77855;BME280;67046;50.088;14.336;2023-03-01T01:02:22;98612.77;;;-0.02;57.97
77855;BME280;67046;50.088;14.336;2023-03-01T01:02:54;98616.57;;;-0.02;57.89
77855;BME280;67046;50.088;14.336;2023-03-01T01:03:26;98614.25;;;-0.01;57.77
77855;BME280;67046;50.088;14.336;2023-03-01T01:04:07;98615.77;;;-0.01;57.81
77855;BME280;67046;50.088;14.336;2023-03-01T01:04:40;98612.70;;;0.01;57.97
77855;BME280;67046;50.088;14.336;2023-03-01T01:05:13;98611.30;;;0.01;58.08
77855;BME280;67046;50.088;14.336;2023-03-01T01:05:45;98611.27;;;0.01;57.89
77855;BME280;67046;50.088;14.336;2023-03-01T01:06:19;98611.73;;;-0.00;57.93
77855;BME280;67046;50.088;14.336;2023-03-01T01:06:52;98612.40;;;-0.00;57.98
77855;BME280;67046;50.088;14.336;2023-03-01T01:07:24;98611.89;;;-0.00;58.26
77855;BME280;67046;50.088;14.336;2023-03-01T01:07:56;98612.25;;;-0.00;58.13
77855;BME280;67046;50.088;14.336;2023-03-01T01:08:28;98612.05;;;0.00;58.02
77855;BME280;67046;50.088;14.336;2023-03-01T01:09:01;98613.77;;;0.00;58.12
77855;BME280;67046;50.088;14.336;2023-03-01T01:09:34;98610.27;;;0.01;57.98
77855;BME280;67046;50.088;14.336;2023-03-01T01:10:06;98611.34;;;0.00;58.27
77855;BME280;67046;50.088;14.336;2023-03-01T01:10:38;98614.61;;;0.00;58.32
77855;BME280;67046;50.088;14.336;2023-03-01T01:11:11;98612.57;;;0.00;58.22
77855;BME280;67046;50.088;14.336;2023-03-01T01:11:48;98613.36;;;0.01;57.90
77855;BME280;67046;50.088;14.336;2023-03-01T01:12:20;98609.60;;;0.00;58.05
77855;BME280;67046;50.088;14.336;2023-03-01T01:12:52;98613.85;;;0.02;58.22
77855;BME280;67046;50.088;14.336;2023-03-01T01:13:24;98612.45;;;0.02;58.08
77855;BME280;67046;50.088;14.336;2023-03-01T01:13:57;98611.50;;;0.03;57.81
77855;BME280;67046;50.088;14.336;2023-03-01T01:14:29;98608.80;;;0.04;57.96
77855;BME280;67046;50.088;14.336;2023-03-01T01:15:01;98610.16;;;0.04;58.14
77855;BME280;67046;50.088;14.336;2023-03-01T01:15:34;98609.19;;;0.05;58.32
77855;BME280;67046;50.088;14.336;2023-03-01T01:16:07;98602.98;;;0.05;58.04
77855;BME280;67046;50.088;14.336;2023-03-01T01:16:39;98603.60;;;0.06;58.05
77855;BME280;67046;50.088;14.336;2023-03-01T01:17:11;98600.87;;;0.05;57.83
77855;BME280;67046;50.088;14.336;2023-03-01T01:17:43;98603.11;;;0.05;58.21
77855;BME280;67046;50.088;14.336;2023-03-01T01:18:15;98599.13;;;0.05;58.20
77855;BME280;67046;50.088;14.336;2023-03-01T01:18:47;98598.46;;;0.05;58.26
77855;BME280;67046;50.088;14.336;2023-03-01T01:19:20;98597.86;;;0.04;58.19
77855;BME280;67046;50.088;14.336;2023-03-01T01:19:51;98600.02;;;0.03;58.12
77855;BME280;67046;50.088;14.336;2023-03-01T01:20:23;98599.41;;;0.00;58.12
77855;BME280;67046;50.088;14.336;2023-03-01T01:20:55;98594.50;;;-0.01;58.12
77855;BME280;67046;50.088;14.336;2023-03-01T01:21:28;98597.77;;;-0.01;57.92
77855;BME280;67046;50.088;14.336;2023-03-01T01:21:59;98595.89;;;-0.01;58.26
77855;BME280;67046;50.088;14.336;2023-03-01T01:22:31;98601.20;;;-0.01;58.13
77855;BME280;67046;50.088;14.336;2023-03-01T01:23:05;98597.77;;;-0.01;58.06
77855;BME280;67046;50.088;14.336;2023-03-01T01:23:39;98598.11;;;-0.01;58.14
77855;BME280;67046;50.088;14.336;2023-03-01T01:24:11;98598.91;;;-0.01;58.39
77855;BME280;67046;50.088;14.336;2023-03-01T01:24:43;98597.42;;;-0.01;58.13
77855;BME280;67046;50.088;14.336;2023-03-01T01:25:15;98597.92;;;-0.01;58.27
77855;BME280;67046;50.088;14.336;2023-03-01T01:25:47;98593.52;;;-0.02;58.31
77855;BME280;67046;50.088;14.336;2023-03-01T01:26:25;98599.13;;;-0.03;58.05
77855;BME280;67046;50.088;14.336;2023-03-01T01:26:58;98596.94;;;-0.03;57.80
77855;BME280;67046;50.088;14.336;2023-03-01T01:27:29;98591.17;;;-0.05;58.00
77855;BME280;67046;50.088;14.336;2023-03-01T01:28:02;98590.68;;;-0.05;58.37
77855;BME280;67046;50.088;14.336;2023-03-01T01:28:34;98592.29;;;-0.05;58.12
77855;BME280;67046;50.088;14.336;2023-03-01T01:29:06;98591.58;;;-0.05;58.44
77855;BME280;67046;50.088;14.336;2023-03-01T01:29:39;98592.95;;;-0.08;58.22
77855;BME280;67046;50.088;14.336;2023-03-01T01:30:11;98593.12;;;-0.10;58.33
77855;BME280;67046;50.088;14.336;2023-03-01T01:30:44;98592.23;;;-0.10;58.53
77855;BME280;67046;50.088;14.336;2023-03-01T01:31:16;98590.38;;;-0.11;58.46
77855;BME280;67046;50.088;14.336;2023-03-01T01:31:48;98589.10;;;-0.12;58.55
77855;BME280;67046;50.088;14.336;2023-03-01T01:32:20;98587.61;;;-0.14;58.42
77855;BME280;67046;50.088;14.336;2023-03-01T01:32:52;98591.23;;;-0.16;58.39
77855;BME280;67046;50.088;14.336;2023-03-01T01:33:24;98593.47;;;-0.16;58.16
77855;BME280;67046;50.088;14.336;2023-03-01T01:33:57;98589.56;;;-0.16;58.19
77855;BME280;67046;50.088;14.336;2023-03-01T01:34:29;98592.05;;;-0.17;58.12
77855;BME280;67046;50.088;14.336;2023-03-01T01:35:02;98590.35;;;-0.17;58.36
77855;BME280;67046;50.088;14.336;2023-03-01T01:35:34;98590.02;;;-0.17;58.17
77855;BME280;67046;50.088;14.336;2023-03-01T01:36:07;98591.15;;;-0.17;58.12
77855;BME280;67046;50.088;14.336;2023-03-01T01:36:39;98591.64;;;-0.17;58.35
77855;BME280;67046;50.088;14.336;2023-03-01T01:37:11;98590.79;;;-0.17;58.36
77855;BME280;67046;50.088;14.336;2023-03-01T01:37:43;98590.60;;;-0.17;58.34
77855;BME280;67046;50.088;14.336;2023-03-01T01:38:15;98591.46;;;-0.18;58.41
77855;BME280;67046;50.088;14.336;2023-03-01T01:38:47;98592.33;;;-0.20;58.60
77855;BME280;67046;50.088;14.336;2023-03-01T01:39:20;98590.54;;;-0.19;58.30
77855;BME280;67046;50.088;14.336;2023-03-01T01:39:52;98590.74;;;-0.22;58.66
77855;BME280;67046;50.088;14.336;2023-03-01T01:40:24;98589.10;;;-0.23;58.59
77855;BME280;67046;50.088;14.336;2023-03-01T01:40:56;98590.70;;;-0.23;58.53
77855;BME280;67046;50.088;14.336;2023-03-01T01:41:29;98590.17;;;-0.23;58.62
77855;BME280;67046;50.088;14.336;2023-03-01T01:42:01;98587.77;;;-0.23;58.64
77855;BME280;67046;50.088;14.336;2023-03-01T01:42:34;98589.74;;;-0.24;58.67
77855;BME280;67046;50.088;14.336;2023-03-01T01:43:14;98588.30;;;-0.23;58.71
77855;BME280;67046;50.088;14.336;2023-03-01T01:44:42;98587.02;;;-0.26;58.73
77855;BME280;67046;50.088;14.336;2023-03-01T01:45:32;98588.85;;;-0.27;59.06
77855;BME280;67046;50.088;14.336;2023-03-01T01:46:32;98589.36;;;-0.29;59.26
77855;BME280;67046;50.088;14.336;2023-03-01T01:47:07;98587.71;;;-0.33;59.07
77855;BME280;67046;50.088;14.336;2023-03-01T01:47:44;98586.17;;;-0.35;59.08
77855;BME280;67046;50.088;14.336;2023-03-01T01:48:22;98587.44;;;-0.36;59.22
77855;BME280;67046;50.088;14.336;2023-03-01T01:49:00;98588.30;;;-0.38;59.06
77855;BME280;67046;50.088;14.336;2023-03-01T01:50:11;98589.77;;;-0.40;58.96
77855;BME280;67046;50.088;14.336;2023-03-01T01:50:59;98585.39;;;-0.42;59.16
77855;BME280;67046;50.088;14.336;2023-03-01T01:51:36;98586.60;;;-0.44;59.28
77855;BME280;67046;50.088;14.336;2023-03-01T01:52:22;98588.05;;;-0.46;59.12
77855;BME280;67046;50.088;14.336;2023-03-01T01:52:56;98587.41;;;-0.48;59.33
77855;BME280;67046;50.088;14.336;2023-03-01T01:53:28;98586.16;;;-0.50;59.27
77855;BME280;67046;50.088;14.336;2023-03-01T01:54:02;98586.92;;;-0.51;59.37
77855;BME280;67046;50.088;14.336;2023-03-01T01:54:44;98585.36;;;-0.52;59.42
77855;BME280;67046;50.088;14.336;2023-03-01T01:55:23;98587.77;;;-0.54;59.45
77855;BME280;67046;50.088;14.336;2023-03-01T01:56:00;98584.45;;;-0.56;59.34
77855;BME280;67046;50.088;14.336;2023-03-01T01:56:33;98583.42;;;-0.57;59.61
77855;BME280;67046;50.088;14.336;2023-03-01T01:57:10;98582.83;;;-0.59;59.50
77855;BME280;67046;50.088;14.336;2023-03-01T01:57:45;98582.92;;;-0.60;59.55
77855;BME280;67046;50.088;14.336;2023-03-01T01:58:20;98583.92;;;-0.61;59.60
77855;BME280;67046;50.088;14.336;2023-03-01T01:58:53;98580.91;;;-0.62;59.30
77855;BME280;67046;50.088;14.336;2023-03-01T01:59:26;98580.85;;;-0.64;59.48
77855;BME280;67046;50.088;14.336;2023-03-01T02:00:05;98581.38;;;-0.64;59.58
77855;BME280;67046;50.088;14.336;2023-03-01T02:00:38;98582.16;;;-0.65;59.63
77855;BME280;67046;50.088;14.336;2023-03-01T02:01:11;98584.85;;;-0.66;59.94
77855;BME280;67046;50.088;14.336;2023-03-01T02:01:43;98577.64;;;-0.66;59.80
77855;BME280;67046;50.088;14.336;2023-03-01T02:02:15;98583.11;;;-0.67;59.70
77855;BME280;67046;50.088;14.336;2023-03-01T02:02:49;98582.34;;;-0.70;59.88
77855;BME280;67046;50.088;14.336;2023-03-01T02:03:30;98578.88;;;-0.72;60.07
77855;BME280;67046;50.088;14.336;2023-03-01T02:04:04;98581.40;;;-0.73;60.06
77855;BME280;67046;50.088;14.336;2023-03-01T02:04:38;98582.67;;;-0.74;60.06
77855;BME280;67046;50.088;14.336;2023-03-01T02:06:04;98583.15;;;-0.75;60.03
77855;BME280;67046;50.088;14.336;2023-03-01T02:06:44;98584.63;;;-0.76;60.17
77855;BME280;67046;50.088;14.336;2023-03-01T02:07:23;98580.88;;;-0.77;60.23
77855;BME280;67046;50.088;14.336;2023-03-01T02:07:57;98582.61;;;-0.77;60.22
77855;BME280;67046;50.088;14.336;2023-03-01T02:08:31;98581.88;;;-0.76;60.26
77855;BME280;67046;50.088;14.336;2023-03-01T02:09:08;98580.91;;;-0.75;60.51
77855;BME280;67046;50.088;14.336;2023-03-01T02:09:46;98580.91;;;-0.75;60.43
77855;BME280;67046;50.088;14.336;2023-03-01T02:10:19;98582.20;;;-0.74;60.36
77855;BME280;67046;50.088;14.336;2023-03-01T02:10:54;98578.45;;;-0.75;60.21
77855;BME280;67046;50.088;14.336;2023-03-01T02:11:29;98576.65;;;-0.74;60.39
77855;BME280;67046;50.088;14.336;2023-03-01T02:12:03;98579.23;;;-0.74;60.32
77855;BME280;67046;50.088;14.336;2023-03-01T02:12:36;98571.91;;;-0.74;60.42
77855;BME280;67046;50.088;14.336;2023-03-01T02:13:10;98573.73;;;-0.73;60.44
77855;BME280;67046;50.088;14.336;2023-03-01T02:13:42;98574.95;;;-0.73;60.41
77855;BME280;67046;50.088;14.336;2023-03-01T02:14:15;98571.96;;;-0.76;60.45
77855;BME280;67046;50.088;14.336;2023-03-01T02:14:47;98574.67;;;-0.77;60.54
77855;BME280;67046;50.088;14.336;2023-03-01T02:15:19;98571.33;;;-0.76;60.53
77855;BME280;67046;50.088;14.336;2023-03-01T02:15:51;98572.39;;;-0.77;60.63
77855;BME280;67046;50.088;14.336;2023-03-01T02:16:25;98571.05;;;-0.77;60.52
77855;BME280;67046;50.088;14.336;2023-03-01T02:16:57;98575.16;;;-0.77;60.50
77855;BME280;67046;50.088;14.336;2023-03-01T02:17:30;98574.08;;;-0.76;60.36
77855;BME280;67046;50.088;14.336;2023-03-01T02:18:03;98574.22;;;-0.76;60.54
77855;BME280;67046;50.088;14.336;2023-03-01T02:18:37;98574.77;;;-0.76;60.49
77855;BME280;67046;50.088;14.336;2023-03-01T02:19:22;98575.51;;;-0.77;60.41
77855;BME280;67046;50.088;14.336;2023-03-01T02:21:03;98571.99;;;-0.80;60.63
77855;BME280;67046;50.088;14.336;2023-03-01T02:21:44;98568.36;;;-0.82;60.65
77855;BME280;67046;50.088;14.336;2023-03-01T02:22:31;98565.42;;;-0.83;60.45
77855;BME280;67046;50.088;14.336;2023-03-01T02:23:03;98562.36;;;-0.84;60.48
77855;BME280;67046;50.088;14.336;2023-03-01T02:23:37;98564.55;;;-0.85;60.52
77855;BME280;67046;50.088;14.336;2023-03-01T02:25:20;98565.84;;;-0.86;60.68
77855;BME280;67046;50.088;14.336;2023-03-01T02:26:01;98562.06;;;-0.88;60.55
77855;BME280;67046;50.088;14.336;2023-03-01T02:26:41;98560.98;;;-0.90;60.23
77855;BME280;67046;50.088;14.336;2023-03-01T02:27:17;98558.61;;;-0.90;60.58
77855;BME280;67046;50.088;14.336;2023-03-01T02:28:38;98557.23;;;-0.92;60.50
77855;BME280;67046;50.088;14.336;2023-03-01T02:29:12;98555.42;;;-0.93;60.67
77855;BME280;67046;50.088;14.336;2023-03-01T02:29:44;98558.08;;;-0.94;60.72
77855;BME280;67046;50.088;14.336;2023-03-01T02:30:16;98556.14;;;-0.93;60.69
77855;BME280;67046;50.088;14.336;2023-03-01T02:30:49;98556.42;;;-0.93;60.85
77855;BME280;67046;50.088;14.336;2023-03-01T02:31:40;98559.05;;;-0.93;60.79
77855;BME280;67046;50.088;14.336;2023-03-01T02:32:16;98554.52;;;-0.93;60.60
77855;BME280;67046;50.088;14.336;2023-03-01T02:32:57;98555.63;;;-0.92;60.42
77855;BME280;67046;50.088;14.336;2023-03-01T02:33:35;98555.41;;;-0.91;60.61
77855;BME280;67046;50.088;14.336;2023-03-01T02:34:28;98557.52;;;-0.92;60.93
77855;BME280;67046;50.088;14.336;2023-03-01T02:35:02;98556.98;;;-0.92;60.94
77855;BME280;67046;50.088;14.336;2023-03-01T02:35:38;98555.30;;;-0.92;61.12
77855;BME280;67046;50.088;14.336;2023-03-01T02:36:15;98559.41;;;-0.91;60.95
77855;BME280;67046;50.088;14.336;2023-03-01T02:37:07;98556.45;;;-0.91;60.58
77855;BME280;67046;50.088;14.336;2023-03-01T02:37:39;98553.92;;;-0.92;61.01
77855;BME280;67046;50.088;14.336;2023-03-01T02:38:12;98555.49;;;-0.94;61.06
77855;BME280;67046;50.088;14.336;2023-03-01T02:38:45;98557.81;;;-0.95;60.80
77855;BME280;67046;50.088;14.336;2023-03-01T02:39:25;98558.45;;;-0.94;61.01
77855;BME280;67046;50.088;14.336;2023-03-01T02:40:00;98551.23;;;-0.93;61.12
77855;BME280;67046;50.088;14.336;2023-03-01T02:40:36;98551.96;;;-0.93;60.99
77855;BME280;67046;50.088;14.336;2023-03-01T02:41:13;98552.19;;;-0.94;61.05
77855;BME280;67046;50.088;14.336;2023-03-01T02:41:50;98556.24;;;-0.93;61.27
77855;BME280;67046;50.088;14.336;2023-03-01T02:42:26;98558.45;;;-0.92;61.14
77855;BME280;67046;50.088;14.336;2023-03-01T02:43:00;98556.89;;;-0.92;61.16
77855;BME280;67046;50.088;14.336;2023-03-01T02:43:32;98558.84;;;-0.93;61.22
77855;BME280;67046;50.088;14.336;2023-03-01T02:44:05;98558.58;;;-0.92;61.28
77855;BME280;67046;50.088;14.336;2023-03-01T02:44:37;98555.95;;;-0.91;61.09
77855;BME280;67046;50.088;14.336;2023-03-01T02:45:09;98553.94;;;-0.92;60.99
77855;BME280;67046;50.088;14.336;2023-03-01T02:45:50;98554.30;;;-0.90;60.74
77855;BME280;67046;50.088;14.336;2023-03-01T02:46:24;98555.46;;;-0.90;60.97
77855;BME280;67046;50.088;14.336;2023-03-01T02:46:58;98552.85;;;-0.90;61.14
77855;BME280;67046;50.088;14.336;2023-03-01T02:47:32;98555.14;;;-0.90;60.82
77855;BME280;67046;50.088;14.336;2023-03-01T02:48:04;98554.78;;;-0.90;61.03
77855;BME280;67046;50.088;14.336;2023-03-01T02:48:45;98552.46;;;-0.90;60.90
77855;BME280;67046;50.088;14.336;2023-03-01T02:49:29;98553.73;;;-0.90;60.76
77855;BME280;67046;50.088;14.336;2023-03-01T02:50:02;98552.48;;;-0.91;61.35
77855;BME280;67046;50.088;14.336;2023-03-01T02:50:56;98554.33;;;-0.93;61.18
77855;BME280;67046;50.088;14.336;2023-03-01T02:51:52;98556.59;;;-0.95;61.40
77855;BME280;67046;50.088;14.336;2023-03-01T02:52:40;98555.16;;;-0.98;61.41
77855;BME280;67046;50.088;14.336;2023-03-01T02:53:23;98555.87;;;-0.98;61.29
77855;BME280;67046;50.088;14.336;2023-03-01T02:54:47;98556.66;;;-0.99;61.15
77855;BME280;67046;50.088;14.336;2023-03-01T02:55:20;98558.94;;;-0.99;61.32
77855;BME280;67046;50.088;14.336;2023-03-01T02:55:52;98561.86;;;-0.99;61.19
77855;BME280;67046;50.088;14.336;2023-03-01T02:56:25;98563.19;;;-1.00;61.47
77855;BME280;67046;50.088;14.336;2023-03-01T02:56:57;98566.52;;;-1.01;61.42
77855;BME280;67046;50.088;14.336;2023-03-01T02:57:31;98563.28;;;-1.01;61.51
77855;BME280;67046;50.088;14.336;2023-03-01T02:58:04;98561.82;;;-1.01;61.53
77855;BME280;67046;50.088;14.336;2023-03-01T02:58:36;98561.30;;;-1.01;61.47
77855;BME280;67046;50.088;14.336;2023-03-01T02:59:18;98561.63;;;-1.00;61.61
77855;BME280;67046;50.088;14.336;2023-03-01T02:59:52;98560.30;;;-1.01;61.46
77855;BME280;67046;50.088;14.336;2023-03-01T03:00:37;98559.85;;;-1.00;61.39
77855;BME280;67046;50.088;14.336;2023-03-01T03:01:18;98559.23;;;-1.00;61.43
77855;BME280;67046;50.088;14.336;2023-03-01T03:01:50;98559.48;;;-1.01;61.28
77855;BME280;67046;50.088;14.336;2023-03-01T03:02:28;98554.81;;;-1.01;61.54
77855;BME280;67046;50.088;14.336;2023-03-01T03:03:10;98555.17;;;-1.01;61.40
77855;BME280;67046;50.088;14.336;2023-03-01T03:03:45;98556.59;;;-1.02;61.25
77855;BME280;67046;50.088;14.336;2023-03-01T03:04:18;98557.73;;;-1.01;61.35
77855;BME280;67046;50.088;14.336;2023-03-01T03:04:50;98556.38;;;-1.01;61.40
77855;BME280;67046;50.088;14.336;2023-03-01T03:05:25;98557.09;;;-1.00;61.47
77855;BME280;67046;50.088;14.336;2023-03-01T03:05:57;98553.39;;;-0.99;61.50
77855;BME280;67046;50.088;14.336;2023-03-01T03:06:29;98558.50;;;-0.98;61.28
77855;BME280;67046;50.088;14.336;2023-03-01T03:07:01;98558.45;;;-0.98;61.22
77855;BME280;67046;50.088;14.336;2023-03-01T03:07:34;98560.59;;;-0.97;61.26